sensor_id;sensor_type;location;lat;lon;timestamp;P1;durP1;ratioP1;P2;durP2;ratioP2
19965;SDS011;10144;50.874;4.762;2023-08-30T00:01:15;18.85;;;10.18;;
19965;SDS011;10144;50.874;4.762;2023-08-30T00:03:44;19.17;;;9.80;;
19965;SDS011;10144;50.874;4.762;2023-08-30T00:06:10;17.83;;;9.52;;
19965;SDS011;10144;50.874;4.762;2023-08-30T00:08:38;19.33;;;9.02;;
19965;SDS011;10144;50.874;4.762;2023-08-30T00:11:04;19.63;;;9.73;;
19965;SDS011;10144;50.874;4.762;2023-08-30T00:13:30;17.48;;;9.35;;
19965;SDS011;10144;50.874;4.762;2023-08-30T00:16:00;15.85;;;9.07;;
19965;SDS011;10144;50.874;4.762;2023-08-30T00:18:27;17.40;;;9.43;;
19965;SDS011;10144;50.874;4.762;2023-08-30T00:20:56;17.75;;;9.32;;
19965;SDS011;10144;50.874;4.762;2023-08-30T00:23:22;17.73;;;9.32;;
19965;SDS011;10144;50.874;4.762;2023-08-30T00:25:48;18.73;;;8.98;;
19965;SDS011;10144;50.874;4.762;2023-08-30T00:28:14;16.83;;;9.32;;
19965;SDS011;10144;50.874;4.762;2023-08-30T00:30:46;16.88;;;8.93;;
19965;SDS011;10144;50.874;4.762;2023-08-30T00:33:20;17.27;;;8.95;;
19965;SDS011;10144;50.874;4.762;2023-08-30T00:35:46;17.40;;;9.38;;
19965;SDS011;10144;50.874;4.762;2023-08-30T00:40:53;14.48;;;8.60;;
19965;SDS011;10144;50.874;4.762;2023-08-30T00:43:19;17.23;;;9.35;;
19965;SDS011;10144;50.874;4.762;2023-08-30T00:45:45;14.52;;;8.82;;
19965;SDS011;10144;50.874;4.762;2023-08-30T00:48:14;16.30;;;8.93;;
19965;SDS011;10144;50.874;4.762;2023-08-30T00:50:41;16.20;;;9.02;;
19965;SDS011;10144;50.874;4.762;2023-08-30T00:53:08;15.95;;;9.02;;
19965;SDS011;10144;50.874;4.762;2023-08-30T00:55:35;13.65;;;8.63;;
19965;SDS011;10144;50.874;4.762;2023-08-30T00:58:01;16.88;;;8.80;;
19965;SDS011;10144;50.874;4.762;2023-08-30T01:00:33;22.40;;;9.20;;
19965;SDS011;10144;50.874;4.762;2023-08-30T01:02:59;16.08;;;8.88;;
19965;SDS011;10144;50.874;4.762;2023-08-30T01:05:26;21.75;;;8.48;;
19965;SDS011;10144;50.874;4.762;2023-08-30T01:07:55;16.92;;;8.88;;
19965;SDS011;10144;50.874;4.762;2023-08-30T01:10:22;17.67;;;9.65;;
19965;SDS011;10144;50.874;4.762;2023-08-30T01:12:59;17.52;;;9.13;;
19965;SDS011;10144;50.874;4.762;2023-08-30T01:15:35;16.98;;;9.43;;
19965;SDS011;10144;50.874;4.762;2023-08-30T01:18:05;17.27;;;9.35;;
19965;SDS011;10144;50.874;4.762;2023-08-30T01:20:35;16.88;;;9.02;;
19965;SDS011;10144;50.874;4.762;2023-08-30T01:23:12;15.02;;;8.90;;
19965;SDS011;10144;50.874;4.762;2023-08-30T01:28:37;14.85;;;8.90;;
19965;SDS011;10144;50.874;4.762;2023-08-30T01:31:07;14.70;;;9.15;;
19965;SDS011;10144;50.874;4.762;2023-08-30T01:33:35;17.23;;;9.02;;
19965;SDS011;10144;50.874;4.762;2023-08-30T01:36:02;18.40;;;9.40;;
19965;SDS011;10144;50.874;4.762;2023-08-30T01:38:29;13.98;;;8.50;;
19965;SDS011;10144;50.874;4.762;2023-08-30T01:40:57;17.88;;;9.43;;
19965;SDS011;10144;50.874;4.762;2023-08-30T01:43:27;19.42;;;9.88;;
19965;SDS011;10144;50.874;4.762;2023-08-30T01:45:54;15.18;;;8.80;;
19965;SDS011;10144;50.874;4.762;2023-08-30T01:48:25;17.88;;;8.85;;
19965;SDS011;10144;50.874;4.762;2023-08-30T01:50:54;17.70;;;8.55;;
19965;SDS011;10144;50.874;4.762;2023-08-30T01:53:25;16.83;;;9.88;;
19965;SDS011;10144;50.874;4.762;2023-08-30T01:55:54;16.25;;;9.63;;
19965;SDS011;10144;50.874;4.762;2023-08-30T01:58:20;16.38;;;9.07;;
19965;SDS011;10144;50.874;4.762;2023-08-30T02:00:46;17.02;;;9.40;;
19965;SDS011;10144;50.874;4.762;2023-08-30T02:03:13;25.00;;;9.57;;
19965;SDS011;10144;50.874;4.762;2023-08-30T02:08:24;19.65;;;9.70;;
19965;SDS011;10144;50.874;4.762;2023-08-30T02:11:00;17.45;;;10.32;;
19965;SDS011;10144;50.874;4.762;2023-08-30T02:13:30;16.88;;;9.77;;
19965;SDS011;10144;50.874;4.762;2023-08-30T02:15:58;21.13;;;10.48;;
19965;SDS011;10144;50.874;4.762;2023-08-30T02:18:26;18.65;;;10.60;;
19965;SDS011;10144;50.874;4.762;2023-08-30T02:20:53;19.92;;;10.95;;
19965;SDS011;10144;50.874;4.762;2023-08-30T02:23:22;22.55;;;11.35;;
19965;SDS011;10144;50.874;4.762;2023-08-30T02:25:50;20.38;;;11.40;;
19965;SDS011;10144;50.874;4.762;2023-08-30T02:28:17;20.85;;;11.35;;
19965;SDS011;10144;50.874;4.762;2023-08-30T02:30:45;21.48;;;11.35;;
19965;SDS011;10144;50.874;4.762;2023-08-30T02:33:11;21.63;;;11.55;;
19965;SDS011;10144;50.874;4.762;2023-08-30T02:35:37;25.60;;;11.32;;
19965;SDS011;10144;50.874;4.762;2023-08-30T02:38:02;22.77;;;11.20;;
19965;SDS011;10144;50.874;4.762;2023-08-30T02:40:31;23.52;;;11.77;;
19965;SDS011;10144;50.874;4.762;2023-08-30T02:42:58;21.77;;;11.45;;
19965;SDS011;10144;50.874;4.762;2023-08-30T02:45:24;22.13;;;11.52;;
19965;SDS011;10144;50.874;4.762;2023-08-30T02:47:50;21.38;;;12.07;;
19965;SDS011;10144;50.874;4.762;2023-08-30T02:50:16;23.55;;;12.13;;
19965;SDS011;10144;50.874;4.762;2023-08-30T02:52:43;25.88;;;12.10;;
19965;SDS011;10144;50.874;4.762;2023-08-30T02:55:09;22.92;;;11.88;;
19965;SDS011;10144;50.874;4.762;2023-08-30T02:57:41;22.20;;;12.20;;
19965;SDS011;10144;50.874;4.762;2023-08-30T03:00:07;27.30;;;12.00;;
19965;SDS011;10144;50.874;4.762;2023-08-30T03:02:33;21.65;;;12.02;;
19965;SDS011;10144;50.874;4.762;2023-08-30T03:05:00;20.98;;;11.95;;
19965;SDS011;10144;50.874;4.762;2023-08-30T03:07:28;22.13;;;12.20;;
19965;SDS011;10144;50.874;4.762;2023-08-30T03:09:54;26.33;;;12.23;;
19965;SDS011;10144;50.874;4.762;2023-08-30T03:12:21;25.77;;;12.10;;
19965;SDS011;10144;50.874;4.762;2023-08-30T03:14:47;26.63;;;12.68;;
19965;SDS011;10144;50.874;4.762;2023-08-30T03:17:13;26.25;;;12.75;;
19965;SDS011;10144;50.874;4.762;2023-08-30T03:19:39;24.00;;;12.15;;
19965;SDS011;10144;50.874;4.762;2023-08-30T03:22:06;23.85;;;11.88;;
19965;SDS011;10144;50.874;4.762;2023-08-30T03:24:31;24.67;;;12.80;;
19965;SDS011;10144;50.874;4.762;2023-08-30T03:26:57;26.98;;;13.10;;
19965;SDS011;10144;50.874;4.762;2023-08-30T03:29:24;24.27;;;13.32;;
19965;SDS011;10144;50.874;4.762;2023-08-30T03:31:50;28.75;;;13.43;;
19965;SDS011;10144;50.874;4.762;2023-08-30T03:34:19;29.02;;;13.30;;
19965;SDS011;10144;50.874;4.762;2023-08-30T03:36:45;25.35;;;12.68;;
19965;SDS011;10144;50.874;4.762;2023-08-30T03:39:18;29.60;;;13.70;;
19965;SDS011;10144;50.874;4.762;2023-08-30T03:41:50;31.15;;;13.63;;
19965;SDS011;10144;50.874;4.762;2023-08-30T03:46:45;26.15;;;13.20;;
19965;SDS011;10144;50.874;4.762;2023-08-30T03:49:14;25.20;;;13.45;;
19965;SDS011;10144;50.874;4.762;2023-08-30T03:51:45;30.15;;;14.40;;
19965;SDS011;10144;50.874;4.762;2023-08-30T03:54:11;31.25;;;14.50;;
19965;SDS011;10144;50.874;4.762;2023-08-30T03:56:42;29.00;;;13.73;;
19965;SDS011;10144;50.874;4.762;2023-08-30T04:01:43;28.05;;;13.77;;
19965;SDS011;10144;50.874;4.762;2023-08-30T04:04:10;25.70;;;13.70;;
19965;SDS011;10144;50.874;4.762;2023-08-30T04:06:35;26.75;;;13.95;;
19965;SDS011;10144;50.874;4.762;2023-08-30T04:09:01;24.85;;;13.27;;
19965;SDS011;10144;50.874;4.762;2023-08-30T04:11:27;28.73;;;14.80;;
19965;SDS011;10144;50.874;4.762;2023-08-30T04:13:52;28.35;;;13.88;;
19965;SDS011;10144;50.874;4.762;2023-08-30T04:16:24;26.88;;;14.25;;
19965;SDS011;10144;50.874;4.762;2023-08-30T04:18:51;27.55;;;13.43;;
19965;SDS011;10144;50.874;4.762;2023-08-30T04:21:18;26.73;;;13.35;;
19965;SDS011;10144;50.874;4.762;2023-08-30T04:23:47;22.95;;;12.18;;
19965;SDS011;10144;50.874;4.762;2023-08-30T04:28:48;26.67;;;12.20;;
19965;SDS011;10144;50.874;4.762;2023-08-30T04:31:15;22.52;;;11.48;;
19965;SDS011;10144;50.874;4.762;2023-08-30T04:33:44;23.00;;;11.48;;
19965;SDS011;10144;50.874;4.762;2023-08-30T04:36:10;22.15;;;11.05;;
19965;SDS011;10144;50.874;4.762;2023-08-30T04:38:39;25.20;;;10.90;;
19965;SDS011;10144;50.874;4.762;2023-08-30T04:41:05;21.63;;;10.93;;
19965;SDS011;10144;50.874;4.762;2023-08-30T04:43:31;22.25;;;10.88;;
19965;SDS011;10144;50.874;4.762;2023-08-30T04:46:03;23.75;;;11.32;;
19965;SDS011;10144;50.874;4.762;2023-08-30T04:48:30;22.42;;;11.05;;
19965;SDS011;10144;50.874;4.762;2023-08-30T04:51:04;20.85;;;11.02;;
19965;SDS011;10144;50.874;4.762;2023-08-30T04:53:30;23.65;;;11.05;;
19965;SDS011;10144;50.874;4.762;2023-08-30T04:55:56;22.35;;;11.18;;
19965;SDS011;10144;50.874;4.762;2023-08-30T04:58:22;21.27;;;10.75;;
19965;SDS011;10144;50.874;4.762;2023-08-30T05:00:50;20.02;;;10.38;;
19965;SDS011;10144;50.874;4.762;2023-08-30T05:03:15;20.20;;;10.75;;
19965;SDS011;10144;50.874;4.762;2023-08-30T05:05:44;19.30;;;9.80;;
19965;SDS011;10144;50.874;4.762;2023-08-30T05:08:10;18.70;;;9.45;;
19965;SDS011;10144;50.874;4.762;2023-08-30T05:10:37;19.50;;;9.27;;
19965;SDS011;10144;50.874;4.762;2023-08-30T05:13:07;18.60;;;8.60;;
19965;SDS011;10144;50.874;4.762;2023-08-30T05:15:32;17.05;;;8.82;;
19965;SDS011;10144;50.874;4.762;2023-08-30T05:18:04;16.88;;;8.88;;
19965;SDS011;10144;50.874;4.762;2023-08-30T05:20:30;19.98;;;8.23;;
19965;SDS011;10144;50.874;4.762;2023-08-30T05:22:57;16.98;;;8.27;;
19965;SDS011;10144;50.874;4.762;2023-08-30T05:25:30;14.13;;;7.70;;
19965;SDS011;10144;50.874;4.762;2023-08-30T05:27:56;13.57;;;7.13;;
19965;SDS011;10144;50.874;4.762;2023-08-30T05:30:23;12.40;;;6.63;;
19965;SDS011;10144;50.874;4.762;2023-08-30T05:32:48;12.73;;;6.53;;
19965;SDS011;10144;50.874;4.762;2023-08-30T05:35:14;15.40;;;6.05;;
19965;SDS011;10144;50.874;4.762;2023-08-30T05:37:40;11.02;;;5.75;;
19965;SDS011;10144;50.874;4.762;2023-08-30T05:40:06;14.40;;;6.40;;
19965;SDS011;10144;50.874;4.762;2023-08-30T05:42:33;16.25;;;5.43;;
19965;SDS011;10144;50.874;4.762;2023-08-30T05:45:04;9.85;;;5.30;;
19965;SDS011;10144;50.874;4.762;2023-08-30T05:47:30;10.43;;;5.22;;
19965;SDS011;10144;50.874;4.762;2023-08-30T05:50:00;9.18;;;4.95;;
19965;SDS011;10144;50.874;4.762;2023-08-30T05:54:54;12.43;;;4.55;;
19965;SDS011;10144;50.874;4.762;2023-08-30T05:57:20;10.63;;;4.30;;
19965;SDS011;10144;50.874;4.762;2023-08-30T05:59:47;8.93;;;4.18;;
19965;SDS011;10144;50.874;4.762;2023-08-30T06:02:13;8.98;;;3.90;;
19965;SDS011;10144;50.874;4.762;2023-08-30T06:04:38;11.70;;;4.25;;
19965;SDS011;10144;50.874;4.762;2023-08-30T06:07:04;7.82;;;4.15;;
19965;SDS011;10144;50.874;4.762;2023-08-30T06:09:30;7.68;;;3.90;;
19965;SDS011;10144;50.874;4.762;2023-08-30T06:11:56;8.02;;;4.40;;
19965;SDS011;10144;50.874;4.762;2023-08-30T06:14:21;9.45;;;3.97;;
19965;SDS011;10144;50.874;4.762;2023-08-30T06:16:50;8.52;;;4.30;;
19965;SDS011;10144;50.874;4.762;2023-08-30T06:19:18;9.90;;;4.72;;
19965;SDS011;10144;50.874;4.762;2023-08-30T06:21:44;9.68;;;4.22;;
19965;SDS011;10144;50.874;4.762;2023-08-30T06:24:09;9.18;;;4.28;;
19965;SDS011;10144;50.874;4.762;2023-08-30T06:26:35;8.98;;;4.35;;
19965;SDS011;10144;50.874;4.762;2023-08-30T06:29:01;11.20;;;4.32;;
19965;SDS011;10144;50.874;4.762;2023-08-30T06:31:27;6.60;;;4.18;;
19965;SDS011;10144;50.874;4.762;2023-08-30T06:33:55;9.15;;;4.22;;
19965;SDS011;10144;50.874;4.762;2023-08-30T06:36:21;9.32;;;3.78;;
19965;SDS011;10144;50.874;4.762;2023-08-30T06:38:48;8.05;;;3.92;;
19965;SDS011;10144;50.874;4.762;2023-08-30T06:41:14;8.52;;;4.38;;
19965;SDS011;10144;50.874;4.762;2023-08-30T06:43:41;9.02;;;4.10;;
19965;SDS011;10144;50.874;4.762;2023-08-30T06:46:06;10.75;;;3.90;;
19965;SDS011;10144;50.874;4.762;2023-08-30T06:48:32;8.57;;;4.07;;
19965;SDS011;10144;50.874;4.762;2023-08-30T06:50:58;7.93;;;4.10;;
19965;SDS011;10144;50.874;4.762;2023-08-30T06:53:24;6.60;;;3.75;;
19965;SDS011;10144;50.874;4.762;2023-08-30T06:55:59;7.82;;;4.00;;
19965;SDS011;10144;50.874;4.762;2023-08-30T06:58:26;7.80;;;3.80;;
19965;SDS011;10144;50.874;4.762;2023-08-30T07:00:52;7.22;;;3.55;;
19965;SDS011;10144;50.874;4.762;2023-08-30T07:03:17;7.05;;;3.88;;
19965;SDS011;10144;50.874;4.762;2023-08-30T07:05:43;6.82;;;3.70;;
19965;SDS011;10144;50.874;4.762;2023-08-30T07:08:09;7.57;;;3.72;;
19965;SDS011;10144;50.874;4.762;2023-08-30T07:10:35;6.78;;;3.40;;
19965;SDS011;10144;50.874;4.762;2023-08-30T07:13:01;10.07;;;4.13;;
19965;SDS011;10144;50.874;4.762;2023-08-30T07:15:27;9.10;;;3.95;;
19965;SDS011;10144;50.874;4.762;2023-08-30T07:17:53;8.85;;;3.97;;
19965;SDS011;10144;50.874;4.762;2023-08-30T07:20:19;8.23;;;4.18;;
19965;SDS011;10144;50.874;4.762;2023-08-30T07:22:46;8.02;;;3.97;;
19965;SDS011;10144;50.874;4.762;2023-08-30T07:25:12;10.60;;;4.22;;
19965;SDS011;10144;50.874;4.762;2023-08-30T07:27:38;8.70;;;4.53;;
19965;SDS011;10144;50.874;4.762;2023-08-30T07:30:05;7.82;;;4.28;;
19965;SDS011;10144;50.874;4.762;2023-08-30T07:32:38;10.90;;;4.72;;
19965;SDS011;10144;50.874;4.762;2023-08-30T07:35:04;11.07;;;4.97;;
19965;SDS011;10144;50.874;4.762;2023-08-30T07:37:30;9.27;;;4.55;;
19965;SDS011;10144;50.874;4.762;2023-08-30T07:39:56;10.07;;;5.25;;
19965;SDS011;10144;50.874;4.762;2023-08-30T07:42:21;11.35;;;4.80;;
19965;SDS011;10144;50.874;4.762;2023-08-30T07:44:47;12.40;;;5.40;;
19965;SDS011;10144;50.874;4.762;2023-08-30T07:47:13;12.00;;;5.25;;
19965;SDS011;10144;50.874;4.762;2023-08-30T07:49:38;12.95;;;5.68;;
19965;SDS011;10144;50.874;4.762;2023-08-30T07:52:04;10.32;;;5.50;;
19965;SDS011;10144;50.874;4.762;2023-08-30T07:54:30;10.90;;;5.75;;
19965;SDS011;10144;50.874;4.762;2023-08-30T07:56:56;10.80;;;5.50;;
19965;SDS011;10144;50.874;4.762;2023-08-30T07:59:22;9.88;;;5.35;;
19965;SDS011;10144;50.874;4.762;2023-08-30T08:01:47;10.18;;;5.80;;
19965;SDS011;10144;50.874;4.762;2023-08-30T08:04:13;11.30;;;5.75;;
19965;SDS011;10144;50.874;4.762;2023-08-30T08:06:38;13.68;;;5.72;;
19965;SDS011;10144;50.874;4.762;2023-08-30T08:09:04;13.57;;;6.07;;
19965;SDS011;10144;50.874;4.762;2023-08-30T08:11:32;11.85;;;6.03;;
19965;SDS011;10144;50.874;4.762;2023-08-30T08:13:58;11.38;;;6.40;;
19965;SDS011;10144;50.874;4.762;2023-08-30T08:16:23;15.27;;;6.28;;
19965;SDS011;10144;50.874;4.762;2023-08-30T08:18:49;12.73;;;6.25;;
19965;SDS011;10144;50.874;4.762;2023-08-30T08:21:17;12.15;;;6.07;;
19965;SDS011;10144;50.874;4.762;2023-08-30T08:23:42;12.20;;;6.32;;
19965;SDS011;10144;50.874;4.762;2023-08-30T08:26:09;12.35;;;6.10;;
19965;SDS011;10144;50.874;4.762;2023-08-30T08:28:35;13.90;;;5.57;;
19965;SDS011;10144;50.874;4.762;2023-08-30T08:31:01;14.15;;;5.57;;
19965;SDS011;10144;50.874;4.762;2023-08-30T08:33:27;12.38;;;6.10;;
19965;SDS011;10144;50.874;4.762;2023-08-30T08:35:54;11.93;;;5.80;;
19965;SDS011;10144;50.874;4.762;2023-08-30T08:38:20;11.50;;;5.40;;
19965;SDS011;10144;50.874;4.762;2023-08-30T08:40:46;10.18;;;5.20;;
19965;SDS011;10144;50.874;4.762;2023-08-30T08:43:12;10.98;;;5.28;;
19965;SDS011;10144;50.874;4.762;2023-08-30T08:45:38;10.65;;;5.47;;
19965;SDS011;10144;50.874;4.762;2023-08-30T08:48:04;10.77;;;5.35;;
19965;SDS011;10144;50.874;4.762;2023-08-30T08:50:34;10.98;;;5.75;;
19965;SDS011;10144;50.874;4.762;2023-08-30T08:53:01;13.32;;;5.88;;
19965;SDS011;10144;50.874;4.762;2023-08-30T08:55:27;9.57;;;5.00;;
19965;SDS011;10144;50.874;4.762;2023-08-30T08:57:55;8.55;;;4.82;;
19965;SDS011;10144;50.874;4.762;2023-08-30T09:00:24;10.45;;;4.55;;
19965;SDS011;10144;50.874;4.762;2023-08-30T09:02:51;8.68;;;4.38;;
19965;SDS011;10144;50.874;4.762;2023-08-30T09:05:19;9.23;;;4.28;;
19965;SDS011;10144;50.874;4.762;2023-08-30T09:07:45;9.25;;;4.40;;
19965;SDS011;10144;50.874;4.762;2023-08-30T09:10:11;8.95;;;4.70;;
19965;SDS011;10144;50.874;4.762;2023-08-30T09:12:37;8.05;;;4.47;;
19965;SDS011;10144;50.874;4.762;2023-08-30T09:15:03;10.18;;;4.30;;
19965;SDS011;10144;50.874;4.762;2023-08-30T09:17:36;10.38;;;4.70;;
19965;SDS011;10144;50.874;4.762;2023-08-30T09:20:06;7.90;;;3.95;;
19965;SDS011;10144;50.874;4.762;2023-08-30T09:22:37;6.93;;;4.15;;
19965;SDS011;10144;50.874;4.762;2023-08-30T09:25:09;6.80;;;4.00;;
19965;SDS011;10144;50.874;4.762;2023-08-30T09:27:35;7.38;;;3.92;;
19965;SDS011;10144;50.874;4.762;2023-08-30T09:30:06;8.30;;;4.35;;
19965;SDS011;10144;50.874;4.762;2023-08-30T09:32:41;8.27;;;4.30;;
19965;SDS011;10144;50.874;4.762;2023-08-30T09:35:07;9.43;;;3.83;;
19965;SDS011;10144;50.874;4.762;2023-08-30T09:37:34;5.88;;;4.00;;
19965;SDS011;10144;50.874;4.762;2023-08-30T09:39:59;7.30;;;4.18;;
19965;SDS011;10144;50.874;4.762;2023-08-30T09:42:26;8.77;;;4.25;;
19965;SDS011;10144;50.874;4.762;2023-08-30T09:44:53;7.18;;;3.90;;
19965;SDS011;10144;50.874;4.762;2023-08-30T09:47:19;6.20;;;4.15;;
19965;SDS011;10144;50.874;4.762;2023-08-30T09:49:45;6.68;;;3.95;;
19965;SDS011;10144;50.874;4.762;2023-08-30T09:52:14;7.82;;;4.22;;
19965;SDS011;10144;50.874;4.762;2023-08-30T09:54:43;8.38;;;4.53;;
19965;SDS011;10144;50.874;4.762;2023-08-30T09:57:11;7.00;;;4.65;;
19965;SDS011;10144;50.874;4.762;2023-08-30T09:59:37;9.88;;;5.00;;
19965;SDS011;10144;50.874;4.762;2023-08-30T10:02:04;11.00;;;4.70;;
19965;SDS011;10144;50.874;4.762;2023-08-30T10:04:31;8.70;;;4.70;;
19965;SDS011;10144;50.874;4.762;2023-08-30T10:06:57;7.22;;;4.53;;
19965;SDS011;10144;50.874;4.762;2023-08-30T10:09:24;7.78;;;4.50;;
19965;SDS011;10144;50.874;4.762;2023-08-30T10:11:50;8.63;;;4.97;;
19965;SDS011;10144;50.874;4.762;2023-08-30T10:14:16;9.65;;;5.28;;
19965;SDS011;10144;50.874;4.762;2023-08-30T10:19:15;11.07;;;5.40;;
19965;SDS011;10144;50.874;4.762;2023-08-30T10:21:47;9.20;;;5.40;;
19965;SDS011;10144;50.874;4.762;2023-08-30T10:24:16;9.80;;;5.60;;
19965;SDS011;10144;50.874;4.762;2023-08-30T10:26:45;10.25;;;5.60;;
19965;SDS011;10144;50.874;4.762;2023-08-30T10:29:12;11.02;;;5.85;;
19965;SDS011;10144;50.874;4.762;2023-08-30T10:31:38;11.07;;;5.97;;
19965;SDS011;10144;50.874;4.762;2023-08-30T10:34:15;11.30;;;5.93;;
19965;SDS011;10144;50.874;4.762;2023-08-30T10:36:45;12.98;;;6.20;;
19965;SDS011;10144;50.874;4.762;2023-08-30T10:39:27;13.98;;;7.03;;
19965;SDS011;10144;50.874;4.762;2023-08-30T10:41:59;12.35;;;7.05;;
19965;SDS011;10144;50.874;4.762;2023-08-30T10:44:25;13.18;;;6.85;;
19965;SDS011;10144;50.874;4.762;2023-08-30T10:46:54;12.48;;;6.55;;
19965;SDS011;10144;50.874;4.762;2023-08-30T10:49:20;14.20;;;7.00;;
19965;SDS011;10144;50.874;4.762;2023-08-30T10:51:56;14.55;;;7.93;;
19965;SDS011;10144;50.874;4.762;2023-08-30T10:54:22;13.77;;;7.78;;
19965;SDS011;10144;50.874;4.762;2023-08-30T10:59:17;12.32;;;7.28;;
19965;SDS011;10144;50.874;4.762;2023-08-30T11:01:45;14.48;;;7.43;;
19965;SDS011;10144;50.874;4.762;2023-08-30T11:04:12;13.48;;;7.65;;
19965;SDS011;10144;50.874;4.762;2023-08-30T11:06:39;11.55;;;7.53;;
19965;SDS011;10144;50.874;4.762;2023-08-30T11:09:05;12.45;;;7.78;;
19965;SDS011;10144;50.874;4.762;2023-08-30T11:11:32;14.50;;;8.57;;
19965;SDS011;10144;50.874;4.762;2023-08-30T11:14:07;13.25;;;7.50;;
19965;SDS011;10144;50.874;4.762;2023-08-30T11:16:34;11.07;;;7.05;;
19965;SDS011;10144;50.874;4.762;2023-08-30T11:21:33;9.73;;;6.30;;
19965;SDS011;10144;50.874;4.762;2023-08-30T11:24:03;11.02;;;6.47;;
19965;SDS011;10144;50.874;4.762;2023-08-30T11:26:29;13.10;;;6.18;;
19965;SDS011;10144;50.874;4.762;2023-08-30T11:28:55;12.02;;;6.28;;
19965;SDS011;10144;50.874;4.762;2023-08-30T11:31:21;11.80;;;6.40;;
19965;SDS011;10144;50.874;4.762;2023-08-30T11:33:54;11.20;;;6.38;;
19965;SDS011;10144;50.874;4.762;2023-08-30T11:36:22;11.60;;;6.45;;
19965;SDS011;10144;50.874;4.762;2023-08-30T11:38:51;10.57;;;6.20;;
19965;SDS011;10144;50.874;4.762;2023-08-30T11:41:21;13.65;;;6.38;;
19965;SDS011;10144;50.874;4.762;2023-08-30T11:43:47;11.88;;;6.75;;
19965;SDS011;10144;50.874;4.762;2023-08-30T11:46:13;11.57;;;7.03;;
19965;SDS011;10144;50.874;4.762;2023-08-30T11:48:39;12.85;;;7.22;;
19965;SDS011;10144;50.874;4.762;2023-08-30T11:51:09;10.55;;;6.35;;
19965;SDS011;10144;50.874;4.762;2023-08-30T11:53:35;13.27;;;6.40;;
19965;SDS011;10144;50.874;4.762;2023-08-30T11:56:03;15.02;;;7.07;;
19965;SDS011;10144;50.874;4.762;2023-08-30T11:58:36;12.27;;;6.75;;
19965;SDS011;10144;50.874;4.762;2023-08-30T12:01:03;12.73;;;6.90;;
19965;SDS011;10144;50.874;4.762;2023-08-30T12:03:30;15.57;;;7.20;;
19965;SDS011;10144;50.874;4.762;2023-08-30T12:05:56;11.40;;;6.72;;
19965;SDS011;10144;50.874;4.762;2023-08-30T12:08:23;15.52;;;6.38;;
19965;SDS011;10144;50.874;4.762;2023-08-30T12:10:50;10.20;;;5.50;;
19965;SDS011;10144;50.874;4.762;2023-08-30T12:15:52;11.60;;;6.03;;
19965;SDS011;10144;50.874;4.762;2023-08-30T12:18:22;12.30;;;5.90;;
19965;SDS011;10144;50.874;4.762;2023-08-30T12:23:25;11.00;;;4.97;;
19965;SDS011;10144;50.874;4.762;2023-08-30T12:28:31;11.40;;;4.10;;
19965;SDS011;10144;50.874;4.762;2023-08-30T12:31:00;11.60;;;3.28;;
19965;SDS011;10144;50.874;4.762;2023-08-30T12:33:26;8.40;;;3.10;;
19965;SDS011;10144;50.874;4.762;2023-08-30T12:35:56;8.23;;;3.10;;
19965;SDS011;10144;50.874;4.762;2023-08-30T12:38:22;10.65;;;2.80;;
19965;SDS011;10144;50.874;4.762;2023-08-30T12:40:49;9.25;;;2.72;;
19965;SDS011;10144;50.874;4.762;2023-08-30T12:43:17;8.52;;;2.33;;
19965;SDS011;10144;50.874;4.762;2023-08-30T12:45:43;8.60;;;2.35;;
19965;SDS011;10144;50.874;4.762;2023-08-30T12:48:10;10.02;;;2.50;;
19965;SDS011;10144;50.874;4.762;2023-08-30T12:50:38;9.05;;;2.33;;
19965;SDS011;10144;50.874;4.762;2023-08-30T12:53:04;8.88;;;2.65;;
19965;SDS011;10144;50.874;4.762;2023-08-30T12:55:31;9.05;;;2.22;;
19965;SDS011;10144;50.874;4.762;2023-08-30T12:57:57;6.55;;;2.15;;
19965;SDS011;10144;50.874;4.762;2023-08-30T13:00:23;8.85;;;2.30;;
19965;SDS011;10144;50.874;4.762;2023-08-30T13:02:49;11.38;;;2.60;;
19965;SDS011;10144;50.874;4.762;2023-08-30T13:05:15;11.20;;;2.47;;
19965;SDS011;10144;50.874;4.762;2023-08-30T13:07:41;9.65;;;2.10;;
19965;SDS011;10144;50.874;4.762;2023-08-30T13:10:07;11.13;;;2.53;;
19965;SDS011;10144;50.874;4.762;2023-08-30T13:12:33;8.20;;;2.13;;
19965;SDS011;10144;50.874;4.762;2023-08-30T13:15:00;7.72;;;2.22;;
19965;SDS011;10144;50.874;4.762;2023-08-30T13:17:26;11.68;;;2.00;;
19965;SDS011;10144;50.874;4.762;2023-08-30T13:19:52;11.65;;;2.17;;
19965;SDS011;10144;50.874;4.762;2023-08-30T13:22:19;8.70;;;2.40;;
19965;SDS011;10144;50.874;4.762;2023-08-30T13:24:44;8.95;;;2.03;;
19965;SDS011;10144;50.874;4.762;2023-08-30T13:27:12;5.30;;;1.90;;
19965;SDS011;10144;50.874;4.762;2023-08-30T13:29:38;9.02;;;2.20;;
19965;SDS011;10144;50.874;4.762;2023-08-30T13:32:04;13.43;;;2.60;;
19965;SDS011;10144;50.874;4.762;2023-08-30T13:34:30;10.55;;;2.50;;
19965;SDS011;10144;50.874;4.762;2023-08-30T13:36:56;8.27;;;2.28;;
19965;SDS011;10144;50.874;4.762;2023-08-30T13:39:21;7.38;;;2.13;;
19965;SDS011;10144;50.874;4.762;2023-08-30T13:41:47;10.40;;;2.60;;
19965;SDS011;10144;50.874;4.762;2023-08-30T13:44:13;10.23;;;2.17;;
19965;SDS011;10144;50.874;4.762;2023-08-30T13:46:39;9.30;;;2.20;;
19965;SDS011;10144;50.874;4.762;2023-08-30T13:49:05;7.50;;;2.10;;
19965;SDS011;10144;50.874;4.762;2023-08-30T13:51:31;7.82;;;2.08;;
19965;SDS011;10144;50.874;4.762;2023-08-30T13:53:57;12.70;;;2.88;;
19965;SDS011;10144;50.874;4.762;2023-08-30T13:56:23;7.38;;;1.98;;
19965;SDS011;10144;50.874;4.762;2023-08-30T13:58:48;10.13;;;1.80;;
19965;SDS011;10144;50.874;4.762;2023-08-30T14:01:14;7.82;;;1.65;;
19965;SDS011;10144;50.874;4.762;2023-08-30T14:03:41;7.90;;;1.80;;
19965;SDS011;10144;50.874;4.762;2023-08-30T14:06:07;6.82;;;1.75;;
19965;SDS011;10144;50.874;4.762;2023-08-30T14:08:33;9.25;;;1.90;;
19965;SDS011;10144;50.874;4.762;2023-08-30T14:10:59;6.30;;;1.80;;
19965;SDS011;10144;50.874;4.762;2023-08-30T14:13:24;7.15;;;1.45;;
19965;SDS011;10144;50.874;4.762;2023-08-30T14:15:50;9.25;;;1.98;;
19965;SDS011;10144;50.874;4.762;2023-08-30T14:18:16;6.28;;;1.73;;
19965;SDS011;10144;50.874;4.762;2023-08-30T14:20:42;4.57;;;1.63;;
19965;SDS011;10144;50.874;4.762;2023-08-30T14:23:08;6.70;;;1.73;;
19965;SDS011;10144;50.874;4.762;2023-08-30T14:25:34;6.03;;;1.67;;
19965;SDS011;10144;50.874;4.762;2023-08-30T14:28:00;5.95;;;1.55;;
19965;SDS011;10144;50.874;4.762;2023-08-30T14:30:26;6.18;;;1.50;;
19965;SDS011;10144;50.874;4.762;2023-08-30T14:32:52;9.88;;;1.70;;
19965;SDS011;10144;50.874;4.762;2023-08-30T14:35:18;4.68;;;1.40;;
19965;SDS011;10144;50.874;4.762;2023-08-30T14:37:49;7.15;;;1.35;;
19965;SDS011;10144;50.874;4.762;2023-08-30T14:40:15;6.13;;;1.60;;
19965;SDS011;10144;50.874;4.762;2023-08-30T14:42:41;5.65;;;1.60;;
19965;SDS011;10144;50.874;4.762;2023-08-30T14:45:07;5.78;;;1.63;;
19965;SDS011;10144;50.874;4.762;2023-08-30T14:47:33;7.80;;;1.88;;
19965;SDS011;10144;50.874;4.762;2023-08-30T14:49:59;6.78;;;1.52;;
19965;SDS011;10144;50.874;4.762;2023-08-30T14:52:27;6.18;;;1.60;;
19965;SDS011;10144;50.874;4.762;2023-08-30T14:54:54;4.43;;;1.52;;
19965;SDS011;10144;50.874;4.762;2023-08-30T14:57:19;7.35;;;1.60;;
19965;SDS011;10144;50.874;4.762;2023-08-30T14:59:46;8.77;;;1.58;;
19965;SDS011;10144;50.874;4.762;2023-08-30T15:02:12;6.25;;;1.52;;
19965;SDS011;10144;50.874;4.762;2023-08-30T15:04:37;6.95;;;1.88;;
19965;SDS011;10144;50.874;4.762;2023-08-30T15:07:05;7.68;;;1.58;;
19965;SDS011;10144;50.874;4.762;2023-08-30T15:09:31;5.90;;;1.95;;